AFR87PQ LFPG-LFBO
Flight info
| Callsign | AFR87PQ |
|---|---|
| Flight time | 1h 0m |
| Altitude | 35000 |
| Route | ERIXU DCT ETAMO DCT GUERE DCT NARAK |
| Aircraft | A20N/M-SDE2E3FGHIRWXY/LB1 |
Departure
| Time | 2026-05-08 13:46 |
|---|---|
| Airport | Charles de Gaulle International Airport (LFPG) |
Arrival
| Time | 2026-05-08 14:46 |
|---|---|
| Airport | Toulouse-Blagnac Airport (LFBO) |
| Time | Latitude | Longitude | Altitude | Speed | Heading |
|---|---|---|---|---|---|
| 2026-05-08 13:14 | 49.00651 | 2.58013 | 346 ft | 0 kts | 268° |
| 2026-05-08 13:30 | 49.00651 | 2.58014 | 346 ft | 0 kts | 268° |
| 2026-05-08 13:31 | 49.00651 | 2.58026 | 346 ft | 2 kts | 268° |
| 2026-05-08 13:31 | 49.00652 | 2.58048 | 346 ft | 2 kts | 268° |
| 2026-05-08 13:31 | 49.00652 | 2.58071 | 345 ft | 2 kts | 268° |
| 2026-05-08 13:31 | 49.00653 | 2.58094 | 345 ft | 2 kts | 268° |
| 2026-05-08 13:32 | 49.00654 | 2.58117 | 344 ft | 1 kts | 280° |
| 2026-05-08 13:32 | 49.00646 | 2.58136 | 344 ft | 2 kts | 324° |
| 2026-05-08 13:32 | 49.00637 | 2.58143 | 344 ft | 0 kts | 352° |
| 2026-05-08 13:32 | 49.00629 | 2.58144 | 344 ft | 1 kts | 356° |
| 2026-05-08 13:36 | 49.00643 | 2.58142 | 344 ft | 3 kts | 354° |
| 2026-05-08 13:36 | 49.00677 | 2.58137 | 344 ft | 6 kts | 355° |
| 2026-05-08 13:36 | 49.00733 | 2.58130 | 344 ft | 9 kts | 355° |
| 2026-05-08 13:37 | 49.00803 | 2.58120 | 344 ft | 10 kts | 354° |
| 2026-05-08 13:37 | 49.00874 | 2.58106 | 344 ft | 9 kts | 340° |
| 2026-05-08 13:37 | 49.00902 | 2.58024 | 346 ft | 9 kts | 269° |
| 2026-05-08 13:37 | 49.00897 | 2.57925 | 348 ft | 9 kts | 266° |
| 2026-05-08 13:38 | 49.00891 | 2.57820 | 350 ft | 11 kts | 265° |
| 2026-05-08 13:38 | 49.00884 | 2.57688 | 351 ft | 14 kts | 266° |
| 2026-05-08 13:38 | 49.00875 | 2.57522 | 353 ft | 16 kts | 265° |
| 2026-05-08 13:38 | 49.00866 | 2.57342 | 356 ft | 17 kts | 265° |
| 2026-05-08 13:39 | 49.00856 | 2.57160 | 363 ft | 16 kts | 265° |
| 2026-05-08 13:39 | 49.00846 | 2.56980 | 366 ft | 17 kts | 266° |
| 2026-05-08 13:39 | 49.00836 | 2.56785 | 365 ft | 19 kts | 265° |
| 2026-05-08 13:39 | 49.00825 | 2.56574 | 361 ft | 20 kts | 265° |
| 2026-05-08 13:40 | 49.00806 | 2.56354 | 357 ft | 21 kts | 262° |
| 2026-05-08 13:40 | 49.00786 | 2.56136 | 349 ft | 19 kts | 262° |
| 2026-05-08 13:40 | 49.00767 | 2.55932 | 347 ft | 19 kts | 264° |
| 2026-05-08 13:40 | 49.00747 | 2.55730 | 343 ft | 19 kts | 262° |
| 2026-05-08 13:41 | 49.00732 | 2.55524 | 340 ft | 19 kts | 265° |
| 2026-05-08 13:41 | 49.00713 | 2.55340 | 338 ft | 16 kts | 244° |
| 2026-05-08 13:41 | 49.00654 | 2.55247 | 336 ft | 12 kts | 185° |
| 2026-05-08 13:41 | 49.00563 | 2.55278 | 333 ft | 14 kts | 164° |
| 2026-05-08 13:42 | 49.00463 | 2.55324 | 331 ft | 15 kts | 164° |
| 2026-05-08 13:42 | 49.00359 | 2.55367 | 329 ft | 15 kts | 164° |
| 2026-05-08 13:42 | 49.00256 | 2.55412 | 327 ft | 15 kts | 164° |
| 2026-05-08 13:42 | 49.00157 | 2.55455 | 326 ft | 14 kts | 164° |
| 2026-05-08 13:43 | 49.00054 | 2.55500 | 325 ft | 15 kts | 165° |
| 2026-05-08 13:43 | 48.99969 | 2.55536 | 325 ft | 11 kts | 164° |
| 2026-05-08 13:43 | 48.99899 | 2.55581 | 327 ft | 10 kts | 146° |
| 2026-05-08 13:43 | 48.99854 | 2.55660 | 330 ft | 10 kts | 119° |
| 2026-05-08 13:44 | 48.99827 | 2.55761 | 330 ft | 10 kts | 120° |
| 2026-05-08 13:44 | 48.99764 | 2.55806 | 332 ft | 10 kts | 174° |
| 2026-05-08 13:44 | 48.99691 | 2.55816 | 333 ft | 10 kts | 176° |
| 2026-05-08 13:44 | 48.99617 | 2.55826 | 333 ft | 8 kts | 174° |
| 2026-05-08 13:45 | 48.99599 | 2.55852 | 333 ft | 4 kts | 82° |
| 2026-05-08 13:45 | 48.99601 | 2.55866 | 333 ft | 0 kts | 86° |
| 2026-05-08 13:45 | 48.99601 | 2.55881 | 333 ft | 8 kts | 86° |
| 2026-05-08 13:46 | 48.99629 | 2.56401 | 338 ft | 90 kts | 86° |
| 2026-05-08 13:46 | 48.99700 | 2.57725 | 353 ft | 156 kts | 84° |
| 2026-05-08 13:46 | 48.99790 | 2.59428 | 948 ft | 164 kts | 84° |
| 2026-05-08 13:46 | 48.99887 | 2.61118 | 1811 ft | 162 kts | 85° |
| 2026-05-08 13:47 | 48.99980 | 2.62831 | 2495 ft | 171 kts | 85° |
| 2026-05-08 13:47 | 49.00071 | 2.64704 | 3054 ft | 186 kts | 86° |
| 2026-05-08 13:47 | 49.00172 | 2.66752 | 3578 ft | 206 kts | 85° |
| 2026-05-08 13:47 | 49.00294 | 2.69008 | 4171 ft | 224 kts | 85° |
| 2026-05-08 13:48 | 49.00428 | 2.71454 | 4807 ft | 242 kts | 85° |
| 2026-05-08 13:48 | 49.00565 | 2.74096 | 5452 ft | 260 kts | 85° |
| 2026-05-08 13:48 | 49.00705 | 2.76872 | 6319 ft | 268 kts | 86° |
| 2026-05-08 13:48 | 49.00727 | 2.79709 | 7267 ft | 273 kts | 93° |
| 2026-05-08 13:49 | 49.00555 | 2.82581 | 8189 ft | 278 kts | 99° |
| 2026-05-08 13:49 | 49.00213 | 2.85475 | 9095 ft | 283 kts | 102° |
| 2026-05-08 13:49 | 48.99828 | 2.88421 | 9990 ft | 288 kts | 103° |
| 2026-05-08 13:49 | 48.99425 | 2.91424 | 10757 ft | 297 kts | 103° |
| 2026-05-08 13:50 | 48.99000 | 2.94589 | 11266 ft | 315 kts | 103° |
| 2026-05-08 13:50 | 48.98394 | 2.97864 | 11752 ft | 329 kts | 116° |
| 2026-05-08 13:50 | 48.97004 | 3.00613 | 12227 ft | 335 kts | 141° |
| 2026-05-08 13:50 | 48.94993 | 3.02296 | 13136 ft | 334 kts | 163° |
| 2026-05-08 13:51 | 48.92714 | 3.02702 | 14030 ft | 334 kts | 186° |
| 2026-05-08 13:51 | 48.90492 | 3.01744 | 14834 ft | 337 kts | 208° |
| 2026-05-08 13:51 | 48.88676 | 2.99519 | 15643 ft | 340 kts | 231° |
| 2026-05-08 13:51 | 48.87563 | 2.96367 | 16456 ft | 344 kts | 253° |
| 2026-05-08 13:52 | 48.87138 | 2.92801 | 17248 ft | 347 kts | 261° |
| 2026-05-08 13:52 | 48.86777 | 2.89157 | 17992 ft | 352 kts | 261° |
| 2026-05-08 13:52 | 48.86403 | 2.85484 | 18723 ft | 355 kts | 261° |
| 2026-05-08 13:52 | 48.86019 | 2.81786 | 19447 ft | 359 kts | 261° |
| 2026-05-08 13:53 | 48.85624 | 2.78042 | 20173 ft | 361 kts | 261° |
| 2026-05-08 13:53 | 48.85223 | 2.74281 | 20903 ft | 364 kts | 261° |
| 2026-05-08 13:53 | 48.84818 | 2.70497 | 21612 ft | 366 kts | 261° |
| 2026-05-08 13:53 | 48.84398 | 2.66687 | 22320 ft | 368 kts | 259° |
| 2026-05-08 13:54 | 48.83626 | 2.63000 | 22992 ft | 372 kts | 244° |
| 2026-05-08 13:54 | 48.82082 | 2.59846 | 23670 ft | 378 kts | 226° |
| 2026-05-08 13:54 | 48.79907 | 2.57588 | 24287 ft | 387 kts | 208° |
| 2026-05-08 13:54 | 48.77335 | 2.56266 | 24857 ft | 395 kts | 200° |
| 2026-05-08 13:55 | 48.74682 | 2.55101 | 25350 ft | 400 kts | 200° |
| 2026-05-08 13:55 | 48.71995 | 2.53927 | 25823 ft | 406 kts | 201° |
| 2026-05-08 13:55 | 48.66520 | 2.51513 | 26758 ft | 415 kts | 201° |
| 2026-05-08 13:56 | 48.63738 | 2.50282 | 27208 ft | 419 kts | 202° |
| 2026-05-08 13:56 | 48.60925 | 2.49037 | 27649 ft | 423 kts | 202° |
| 2026-05-08 13:56 | 48.58094 | 2.47781 | 28064 ft | 428 kts | 202° |
| 2026-05-08 13:56 | 48.55235 | 2.46516 | 28506 ft | 431 kts | 202° |
| 2026-05-08 13:57 | 48.52356 | 2.45247 | 28951 ft | 433 kts | 202° |
| 2026-05-08 13:57 | 48.49464 | 2.43969 | 29331 ft | 436 kts | 202° |
| 2026-05-08 13:57 | 48.46545 | 2.42682 | 29674 ft | 440 kts | 202° |
| 2026-05-08 13:57 | 48.43602 | 2.41386 | 30082 ft | 442 kts | 202° |
| 2026-05-08 13:58 | 48.40660 | 2.40091 | 30533 ft | 442 kts | 203° |
| 2026-05-08 13:58 | 48.37720 | 2.38799 | 31017 ft | 441 kts | 202° |
| 2026-05-08 13:58 | 48.34780 | 2.37509 | 31518 ft | 440 kts | 202° |
| 2026-05-08 13:58 | 48.31857 | 2.36228 | 32003 ft | 438 kts | 203° |
| 2026-05-08 13:59 | 48.28944 | 2.34954 | 32492 ft | 436 kts | 202° |
| 2026-05-08 13:59 | 48.26046 | 2.33679 | 32986 ft | 435 kts | 202° |
| 2026-05-08 13:59 | 48.23158 | 2.32405 | 33454 ft | 434 kts | 202° |
| 2026-05-08 13:59 | 48.20275 | 2.31139 | 33856 ft | 434 kts | 202° |
| 2026-05-08 14:00 | 48.17383 | 2.29874 | 34238 ft | 434 kts | 202° |
| 2026-05-08 14:00 | 48.14467 | 2.28662 | 34613 ft | 436 kts | 200° |
| 2026-05-08 14:00 | 48.11499 | 2.27677 | 34959 ft | 437 kts | 197° |
| 2026-05-08 14:00 | 48.08500 | 2.26957 | 35307 ft | 439 kts | 193° |
| 2026-05-08 14:01 | 48.05467 | 2.26509 | 35673 ft | 439 kts | 189° |
| 2026-05-08 14:01 | 48.02420 | 2.26341 | 36010 ft | 440 kts | 186° |
| 2026-05-08 14:01 | 47.99362 | 2.26449 | 36341 ft | 440 kts | 182° |
| 2026-05-08 14:01 | 47.96315 | 2.26654 | 36617 ft | 440 kts | 182° |
| 2026-05-08 14:02 | 47.93250 | 2.26859 | 36870 ft | 441 kts | 182° |
| 2026-05-08 14:02 | 47.87090 | 2.27263 | 36975 ft | 442 kts | 182° |
| 2026-05-08 14:03 | 47.80957 | 2.27661 | 36988 ft | 442 kts | 182° |
| 2026-05-08 14:03 | 47.74824 | 2.28051 | 36982 ft | 442 kts | 182° |
| 2026-05-08 14:04 | 47.68689 | 2.28441 | 36980 ft | 441 kts | 182° |
| 2026-05-08 14:04 | 47.62571 | 2.28826 | 36966 ft | 440 kts | 182° |
| 2026-05-08 14:05 | 47.56455 | 2.29211 | 36962 ft | 441 kts | 182° |
| 2026-05-08 14:05 | 47.50343 | 2.29595 | 36960 ft | 440 kts | 182° |
| 2026-05-08 14:06 | 47.44247 | 2.29976 | 36958 ft | 439 kts | 182° |
| 2026-05-08 14:06 | 47.38149 | 2.30357 | 36959 ft | 440 kts | 182° |
| 2026-05-08 14:07 | 47.32042 | 2.30738 | 36964 ft | 439 kts | 182° |
| 2026-05-08 14:07 | 47.25955 | 2.31117 | 36960 ft | 438 kts | 182° |
| 2026-05-08 14:08 | 47.19872 | 2.31495 | 36950 ft | 438 kts | 182° |
| 2026-05-08 14:08 | 47.13798 | 2.31873 | 36952 ft | 437 kts | 182° |
| 2026-05-08 14:09 | 47.07738 | 2.32249 | 36955 ft | 436 kts | 182° |
| 2026-05-08 14:09 | 47.01691 | 2.32627 | 36944 ft | 435 kts | 182° |
| 2026-05-08 14:10 | 46.95637 | 2.33001 | 36950 ft | 435 kts | 182° |
| 2026-05-08 14:10 | 46.89586 | 2.33298 | 36944 ft | 434 kts | 185° |
| 2026-05-08 14:11 | 46.83591 | 2.32778 | 36944 ft | 429 kts | 191° |
| 2026-05-08 14:11 | 46.77722 | 2.31262 | 36942 ft | 430 kts | 198° |
| 2026-05-08 14:12 | 46.71914 | 2.29041 | 36940 ft | 434 kts | 199° |
| 2026-05-08 14:12 | 46.66079 | 2.26801 | 36935 ft | 435 kts | 199° |
| 2026-05-08 14:13 | 46.60249 | 2.24571 | 36942 ft | 434 kts | 199° |
| 2026-05-08 14:13 | 46.54405 | 2.22339 | 36938 ft | 435 kts | 199° |
| 2026-05-08 14:14 | 46.48569 | 2.20114 | 36941 ft | 435 kts | 199° |
| 2026-05-08 14:14 | 46.42727 | 2.17894 | 36939 ft | 435 kts | 199° |
| 2026-05-08 14:15 | 46.36890 | 2.15678 | 36935 ft | 435 kts | 199° |
| 2026-05-08 14:15 | 46.31026 | 2.13459 | 36932 ft | 435 kts | 198° |
| 2026-05-08 14:16 | 46.25171 | 2.11250 | 36933 ft | 435 kts | 198° |
| 2026-05-08 14:16 | 46.19290 | 2.09164 | 36934 ft | 436 kts | 195° |
| 2026-05-08 14:17 | 46.13302 | 2.07851 | 36929 ft | 434 kts | 191° |
| 2026-05-08 14:17 | 46.07335 | 2.06742 | 36945 ft | 433 kts | 191° |
| 2026-05-08 14:18 | 46.01365 | 2.05634 | 36957 ft | 433 kts | 191° |
| 2026-05-08 14:18 | 45.95393 | 2.04530 | 36949 ft | 434 kts | 191° |
| 2026-05-08 14:19 | 45.89418 | 2.03429 | 36948 ft | 434 kts | 191° |
| 2026-05-08 14:19 | 45.83427 | 2.02334 | 36949 ft | 434 kts | 191° |
| 2026-05-08 14:20 | 45.77435 | 2.01243 | 36959 ft | 434 kts | 191° |
| 2026-05-08 14:20 | 45.71438 | 2.00147 | 36960 ft | 435 kts | 191° |
| 2026-05-08 14:21 | 45.65441 | 1.99051 | 36954 ft | 435 kts | 191° |
| 2026-05-08 14:21 | 45.59453 | 1.97961 | 36798 ft | 435 kts | 191° |
| 2026-05-08 14:21 | 45.56469 | 1.97418 | 36490 ft | 431 kts | 191° |
| 2026-05-08 14:22 | 45.53510 | 1.96883 | 36197 ft | 429 kts | 191° |
| 2026-05-08 14:22 | 45.50566 | 1.96352 | 35788 ft | 426 kts | 191° |
| 2026-05-08 14:22 | 45.47634 | 1.95820 | 35268 ft | 425 kts | 191° |
| 2026-05-08 14:22 | 45.44709 | 1.95289 | 34680 ft | 425 kts | 191° |
| 2026-05-08 14:23 | 45.41792 | 1.94760 | 34056 ft | 424 kts | 191° |
| 2026-05-08 14:23 | 45.38874 | 1.94230 | 33358 ft | 425 kts | 190° |
| 2026-05-08 14:23 | 45.35954 | 1.93702 | 32640 ft | 426 kts | 190° |
| 2026-05-08 14:23 | 45.33010 | 1.93168 | 31832 ft | 429 kts | 190° |
| 2026-05-08 14:24 | 45.30049 | 1.92632 | 30993 ft | 432 kts | 189° |
| 2026-05-08 14:24 | 45.27065 | 1.92094 | 30144 ft | 435 kts | 189° |
| 2026-05-08 14:24 | 45.24070 | 1.91556 | 29465 ft | 435 kts | 189° |
| 2026-05-08 14:24 | 45.21091 | 1.91024 | 28969 ft | 430 kts | 189° |
| 2026-05-08 14:25 | 45.18144 | 1.90498 | 28476 ft | 426 kts | 189° |
| 2026-05-08 14:25 | 45.15214 | 1.89973 | 27991 ft | 421 kts | 188° |
| 2026-05-08 14:25 | 45.12327 | 1.89457 | 27504 ft | 417 kts | 188° |
| 2026-05-08 14:25 | 45.09462 | 1.88945 | 26995 ft | 414 kts | 188° |
| 2026-05-08 14:26 | 45.06623 | 1.88438 | 26498 ft | 411 kts | 188° |
| 2026-05-08 14:26 | 45.03805 | 1.87935 | 26007 ft | 407 kts | 188° |
| 2026-05-08 14:26 | 45.01010 | 1.87437 | 25522 ft | 404 kts | 188° |
| 2026-05-08 14:26 | 44.98228 | 1.86943 | 25025 ft | 401 kts | 187° |
| 2026-05-08 14:27 | 44.95476 | 1.86454 | 24521 ft | 399 kts | 187° |
| 2026-05-08 14:27 | 44.92747 | 1.85971 | 24052 ft | 395 kts | 187° |
| 2026-05-08 14:27 | 44.90039 | 1.85491 | 23593 ft | 391 kts | 187° |
| 2026-05-08 14:27 | 44.87342 | 1.85015 | 23143 ft | 388 kts | 187° |
| 2026-05-08 14:28 | 44.84674 | 1.84546 | 22704 ft | 384 kts | 187° |
| 2026-05-08 14:28 | 44.82039 | 1.84082 | 22258 ft | 381 kts | 187° |
| 2026-05-08 14:28 | 44.79421 | 1.83620 | 21801 ft | 379 kts | 187° |
| 2026-05-08 14:28 | 44.76821 | 1.83161 | 21357 ft | 376 kts | 187° |
| 2026-05-08 14:29 | 44.74243 | 1.82707 | 20922 ft | 372 kts | 187° |
| 2026-05-08 14:29 | 44.71689 | 1.82258 | 20487 ft | 369 kts | 187° |
| 2026-05-08 14:29 | 44.69154 | 1.81811 | 20050 ft | 366 kts | 187° |
| 2026-05-08 14:29 | 44.66639 | 1.81369 | 19613 ft | 363 kts | 187° |
| 2026-05-08 14:30 | 44.64145 | 1.80930 | 19181 ft | 360 kts | 187° |
| 2026-05-08 14:30 | 44.61675 | 1.80496 | 18735 ft | 357 kts | 187° |
| 2026-05-08 14:30 | 44.59225 | 1.80067 | 18310 ft | 354 kts | 187° |
| 2026-05-08 14:30 | 44.56795 | 1.79640 | 17883 ft | 351 kts | 187° |
| 2026-05-08 14:31 | 44.54383 | 1.79218 | 17434 ft | 349 kts | 187° |
| 2026-05-08 14:31 | 44.51987 | 1.78800 | 16974 ft | 347 kts | 187° |
| 2026-05-08 14:31 | 44.49606 | 1.78383 | 16516 ft | 345 kts | 187° |
| 2026-05-08 14:32 | 44.44869 | 1.77556 | 15591 ft | 342 kts | 187° |
| 2026-05-08 14:32 | 44.42515 | 1.77146 | 15125 ft | 341 kts | 187° |
| 2026-05-08 14:32 | 44.40171 | 1.76738 | 14665 ft | 340 kts | 187° |
| 2026-05-08 14:32 | 44.37831 | 1.76330 | 14202 ft | 339 kts | 187° |
| 2026-05-08 14:33 | 44.35498 | 1.75923 | 13727 ft | 338 kts | 187° |
| 2026-05-08 14:33 | 44.33163 | 1.75516 | 13250 ft | 338 kts | 187° |
| 2026-05-08 14:33 | 44.30849 | 1.75021 | 12792 ft | 337 kts | 192° |
| 2026-05-08 14:33 | 44.28615 | 1.74091 | 12331 ft | 336 kts | 200° |
| 2026-05-08 14:34 | 44.26502 | 1.72745 | 11900 ft | 334 kts | 206° |
| 2026-05-08 14:34 | 44.24447 | 1.71267 | 11459 ft | 332 kts | 207° |
| 2026-05-08 14:34 | 44.22413 | 1.69781 | 11037 ft | 330 kts | 207° |
| 2026-05-08 14:34 | 44.20391 | 1.68310 | 10612 ft | 328 kts | 207° |
| 2026-05-08 14:35 | 44.18375 | 1.66850 | 10191 ft | 325 kts | 206° |
| 2026-05-08 14:35 | 44.16410 | 1.65432 | 10061 ft | 311 kts | 206° |
| 2026-05-08 14:35 | 44.14530 | 1.64078 | 9970 ft | 296 kts | 206° |
| 2026-05-08 14:35 | 44.12741 | 1.62793 | 9889 ft | 282 kts | 206° |
| 2026-05-08 14:36 | 44.11027 | 1.61561 | 9697 ft | 275 kts | 206° |
| 2026-05-08 14:36 | 44.09334 | 1.60346 | 9363 ft | 274 kts | 206° |
| 2026-05-08 14:36 | 44.07647 | 1.59137 | 9038 ft | 273 kts | 206° |
| 2026-05-08 14:36 | 44.05981 | 1.57891 | 8709 ft | 272 kts | 211° |
| 2026-05-08 14:37 | 44.04457 | 1.56342 | 8379 ft | 272 kts | 220° |
| 2026-05-08 14:37 | 44.03091 | 1.54532 | 8056 ft | 272 kts | 223° |
| 2026-05-08 14:37 | 44.01743 | 1.52699 | 7736 ft | 271 kts | 223° |
| 2026-05-08 14:37 | 44.00402 | 1.50877 | 7414 ft | 270 kts | 223° |
| 2026-05-08 14:38 | 43.99066 | 1.49067 | 7101 ft | 269 kts | 223° |
| 2026-05-08 14:38 | 43.97732 | 1.47267 | 6795 ft | 267 kts | 223° |
| 2026-05-08 14:38 | 43.96405 | 1.45479 | 6489 ft | 266 kts | 222° |
| 2026-05-08 14:38 | 43.95082 | 1.43697 | 6190 ft | 265 kts | 223° |
| 2026-05-08 14:39 | 43.93764 | 1.41926 | 5894 ft | 264 kts | 222° |
| 2026-05-08 14:39 | 43.92448 | 1.40161 | 5600 ft | 262 kts | 222° |
| 2026-05-08 14:39 | 43.91144 | 1.38410 | 5309 ft | 261 kts | 222° |
| 2026-05-08 14:39 | 43.89842 | 1.36664 | 5020 ft | 260 kts | 222° |
| 2026-05-08 14:40 | 43.88542 | 1.34933 | 4732 ft | 258 kts | 221° |
| 2026-05-08 14:40 | 43.87249 | 1.33209 | 4445 ft | 257 kts | 221° |
| 2026-05-08 14:40 | 43.85967 | 1.31491 | 4160 ft | 257 kts | 221° |
| 2026-05-08 14:40 | 43.84690 | 1.29780 | 3875 ft | 256 kts | 221° |
| 2026-05-08 14:41 | 43.83414 | 1.28072 | 3592 ft | 255 kts | 221° |
| 2026-05-08 14:41 | 43.82141 | 1.26371 | 3309 ft | 255 kts | 221° |
| 2026-05-08 14:41 | 43.80863 | 1.24667 | 3051 ft | 259 kts | 221° |
| 2026-05-08 14:41 | 43.79583 | 1.22964 | 2970 ft | 248 kts | 219° |
| 2026-05-08 14:42 | 43.78179 | 1.21814 | 2938 ft | 226 kts | 186° |
| 2026-05-08 14:42 | 43.76735 | 1.22089 | 2954 ft | 205 kts | 149° |
| 2026-05-08 14:42 | 43.75565 | 1.23192 | 2956 ft | 199 kts | 137° |
| 2026-05-08 14:42 | 43.74546 | 1.24388 | 2948 ft | 189 kts | 137° |
| 2026-05-08 14:43 | 43.73529 | 1.25538 | 2793 ft | 188 kts | 139° |
| 2026-05-08 14:43 | 43.72502 | 1.26639 | 2585 ft | 183 kts | 140° |
| 2026-05-08 14:43 | 43.71535 | 1.27646 | 2396 ft | 168 kts | 141° |
| 2026-05-08 14:43 | 43.70631 | 1.28585 | 2149 ft | 157 kts | 141° |
| 2026-05-08 14:44 | 43.69782 | 1.29467 | 1923 ft | 148 kts | 139° |
| 2026-05-08 14:44 | 43.69000 | 1.30280 | 1747 ft | 134 kts | 139° |
| 2026-05-08 14:44 | 43.68287 | 1.31021 | 1557 ft | 124 kts | 139° |
| 2026-05-08 14:44 | 43.67603 | 1.31739 | 1418 ft | 124 kts | 141° |
| 2026-05-08 14:45 | 43.66916 | 1.32453 | 1263 ft | 123 kts | 140° |
| 2026-05-08 14:45 | 43.66230 | 1.33169 | 1105 ft | 123 kts | 143° |
| 2026-05-08 14:45 | 43.65546 | 1.33880 | 938 ft | 122 kts | 143° |
| 2026-05-08 14:45 | 43.64862 | 1.34589 | 783 ft | 123 kts | 141° |
| 2026-05-08 14:46 | 43.64177 | 1.35308 | 632 ft | 123 kts | 141° |
| 2026-05-08 14:46 | 43.63496 | 1.36014 | 502 ft | 120 kts | 142° |
| 2026-05-08 14:46 | 43.62928 | 1.36605 | 496 ft | 78 kts | 143° |
| 2026-05-08 14:46 | 43.62618 | 1.36928 | 494 ft | 36 kts | 143° |
| 2026-05-08 14:47 | 43.62507 | 1.37047 | 494 ft | 11 kts | 134° |
| 2026-05-08 14:47 | 43.62485 | 1.37149 | 494 ft | 10 kts | 86° |
| 2026-05-08 14:47 | 43.62499 | 1.37223 | 494 ft | 6 kts | 61° |
| 2026-05-08 14:47 | 43.62526 | 1.37274 | 494 ft | 7 kts | 53° |
| 2026-05-08 14:48 | 43.62560 | 1.37335 | 495 ft | 8 kts | 52° |
| 2026-05-08 14:48 | 43.62593 | 1.37395 | 497 ft | 7 kts | 53° |
| 2026-05-08 14:48 | 43.62630 | 1.37462 | 498 ft | 10 kts | 47° |
| 2026-05-08 14:48 | 43.62696 | 1.37466 | 498 ft | 11 kts | 325° |
| 2026-05-08 14:49 | 43.62758 | 1.37402 | 498 ft | 9 kts | 323° |
| 2026-05-08 14:49 | 43.62800 | 1.37399 | 498 ft | 4 kts | 47° |
| 2026-05-08 14:49 | 43.62811 | 1.37433 | 499 ft | 3 kts | 70° |
| 2026-05-08 14:49 | 43.62819 | 1.37466 | 500 ft | 4 kts | 71° |
| 2026-05-08 14:50 | 43.62832 | 1.37507 | 501 ft | 5 kts | 55° |
| 2026-05-08 14:50 | 43.62869 | 1.37529 | 501 ft | 6 kts | 8° |
| 2026-05-08 14:50 | 43.62904 | 1.37536 | 501 ft | 1 kts | 7° |
| 2026-05-08 14:50 | 43.62906 | 1.37536 | 501 ft | 0 kts | 7° |